Hoboken, New Jersey
Current Conditions -  °F | °C
As of 6:51 AM on Sunday 25 Jan 2015 (Local Time) from KNYC Reporting Station
Overcast Overcast  
Wind Chill: 28°   Ceiling: 5000
Heat Index: 36°   Visibility: 10mi
Dew Point: 24°   Wind: 12mph
Humidity: 62%   Direction: 260°W
Pressure: 29.67"   Gusts: 20mph
Location:  40.74°N, 74.03°W
Report Text: KNYC 251151Z AUTO 26010G17KT 10SM OVC050 02/M04 A2967 RMK AO2 SLP038 70006 T00221044 10028 20011 51022
Loading
Personal Weather Stations






























Interactive Weather Map New forecast layout! Learn more

10-Day Weather Forecast

Advertisements
Track Severe Weather on mobile